Time;durP1;ratioP1;P1;durP2;ratioP2;P2;SDS_P1;SDS_P2;PMS_P1;PMS_P2;Temp;Humidity;BMP_temperature;BMP_pressure;BME280_temperature;BME280_humidity;BME280_pressure;Samples;Min_cycle;Max_cycle;Signal;HPM_P1;HPM_P2
2022/01/02 00:00:15;;;;;;;8.60;7.70;;;6.70;98.90;;;;;;5110462;28;20428;-42
2022/01/02 00:02:42;;;;;;;8.37;7.50;;;6.70;99.30;;;;;;5137947;27;20430;-43
2022/01/02 00:05:11;;;;;;;9.30;8.30;;;6.70;99.60;;;;;;5139173;28;20481;-42
2022/01/02 00:07:49;;;;;;;8.60;7.30;;;6.80;99.50;;;;;;5103435;28;20767;-42
2022/01/02 00:10:15;;;;;;;10.47;7.07;;;6.80;99.50;;;;;;5139060;28;20421;-41
2022/01/02 00:12:44;;;;;;;8.53;7.73;;;6.80;99.50;;;;;;5139112;28;20417;-42
2022/01/02 00:15:11;;;;;;;9.50;8.33;;;6.80;99.50;;;;;;5119575;28;20448;-42
2022/01/02 00:17:38;;;;;;;10.57;8.80;;;6.80;99.40;;;;;;5137349;28;20405;-40
2022/01/02 00:20:09;;;;;;;8.50;7.60;;;6.70;99.40;;;;;;5137594;28;20463;-43
2022/01/02 00:22:37;;;;;;;9.30;8.40;;;6.60;99.20;;;;;;5119459;28;20437;-43
2022/01/02 00:25:10;;;;;;;9.63;8.63;;;6.60;99.20;;;;;;5136613;27;20476;-42
2022/01/02 00:27:36;;;;;;;11.27;8.00;;;6.50;99.10;;;;;;5138194;27;20401;-42
2022/01/02 00:30:06;;;;;;;8.97;7.60;;;6.40;99.30;;;;;;5115394;28;20519;-41
2022/01/02 00:32:36;;;;;;;8.57;7.67;;;6.30;99.30;;;;;;5118349;28;20441;-42
2022/01/02 00:35:04;;;;;;;8.60;7.70;;;6.30;99.60;;;;;;5117286;28;20414;-42
2022/01/02 00:37:29;;;;;;;8.93;8.03;;;6.20;99.70;;;;;;5117295;28;20498;-42
2022/01/02 00:39:55;;;;;;;9.30;8.27;;;6.10;99.70;;;;;;5117927;28;20422;-41
2022/01/02 00:42:41;;;;;;;8.90;8.00;;;6.10;99.80;;;;;;5115639;28;20206;-42
2022/01/02 00:45:13;;;;;;;8.30;7.43;;;6.10;99.90;;;;;;5116987;28;20242;-42
2022/01/02 00:48:00;;;;;;;10.40;9.30;;;6.00;99.90;;;;;;5115469;28;20417;-41
2022/01/02 00:50:43;;;;;;;11.60;9.43;;;6.00;99.90;;;;;;5116861;28;20691;-45
2022/01/02 00:53:10;;;;;;;9.10;8.20;;;5.90;99.90;;;;;;5116908;28;20422;-42
2022/01/02 00:55:36;;;;;;;9.23;8.27;;;5.90;99.80;;;;;;5117519;28;20425;-43
2022/01/02 00:58:08;;;;;;;10.40;8.50;;;5.80;99.80;;;;;;5118174;28;20510;-41
2022/01/02 01:00:34;;;;;;;8.90;7.83;;;5.70;99.90;;;;;;5116702;28;20176;-43
2022/01/02 01:03:07;;;;;;;10.90;7.97;;;5.70;99.90;;;;;;5116852;28;20443;-41
2022/01/02 01:05:34;;;;;;;8.97;7.97;;;5.70;99.90;;;;;;5116281;28;20503;-41
2022/01/02 01:08:03;;;;;;;8.03;7.23;;;5.70;99.90;;;;;;5099687;28;20422;-41
2022/01/02 01:10:31;;;;;;;7.83;6.90;;;5.70;99.90;;;;;;5117337;28;20582;-44
2022/01/02 01:13:00;;;;;;;9.00;7.10;;;5.70;99.90;;;;;;5117021;28;20865;-41
2022/01/02 01:15:28;;;;;;;8.90;6.97;;;5.70;99.90;;;;;;5119773;28;20413;-40
2022/01/02 01:17:56;;;;;;;7.87;7.10;;;5.70;99.90;;;;;;5121074;28;20437;-41
2022/01/02 01:20:23;;;;;;;10.60;7.20;;;5.60;99.90;;;;;;5119176;28;20563;-42
2022/01/02 01:22:49;;;;;;;8.93;7.20;;;5.60;99.90;;;;;;5117692;28;20437;-42
2022/01/02 01:25:17;;;;;;;8.50;7.60;;;5.60;99.90;;;;;;5119329;28;20460;-41
2022/01/02 01:27:47;;;;;;;8.00;7.20;;;5.60;99.90;;;;;;5119270;28;20482;-42
2022/01/02 01:30:14;;;;;;;10.30;8.57;;;5.50;99.90;;;;;;5125882;27;20453;-43
2022/01/02 01:32:42;;;;;;;8.17;7.20;;;5.50;99.90;;;;;;5140614;27;20433;-43
2022/01/02 01:35:09;;;;;;;8.70;7.10;;;5.50;99.90;;;;;;5140787;27;20399;-41
2022/01/02 01:37:35;;;;;;;8.23;6.63;;;5.50;99.90;;;;;;5123264;27;20431;-43
2022/01/02 01:40:02;;;;;;;8.70;7.67;;;5.50;99.90;;;;;;5141435;27;20520;-42
2022/01/02 01:42:40;;;;;;;9.13;8.13;;;5.50;99.90;;;;;;5140847;27;20640;-43
2022/01/02 01:47:33;;;;;;;8.43;6.57;;;5.50;99.90;;;;;;5140349;27;20500;-41
2022/01/02 01:49:59;;;;;;;6.83;5.87;;;5.60;99.90;;;;;;5140763;27;20773;-42
2022/01/02 01:52:28;;;;;;;6.70;6.00;;;5.60;99.90;;;;;;5141058;27;20433;-43
2022/01/02 01:54:53;;;;;;;8.17;6.80;;;5.60;99.90;;;;;;5140973;27;20203;-41
2022/01/02 01:57:19;;;;;;;6.90;5.40;;;5.70;99.90;;;;;;5141378;27;20427;-41
2022/01/02 01:59:48;;;;;;;6.33;5.73;;;5.70;99.90;;;;;;5140844;27;20611;-42
2022/01/02 02:02:15;;;;;;;6.93;5.60;;;5.80;99.90;;;;;;5140452;27;20168;-40
2022/01/02 02:04:42;;;;;;;7.00;6.30;;;5.80;99.90;;;;;;5140527;27;20425;-42
2022/01/02 02:07:07;;;;;;;6.10;5.60;;;5.90;99.90;;;;;;5122819;27;20401;-42
2022/01/02 02:09:48;;;;;;;6.47;5.10;;;5.90;99.90;;;;;;5140503;27;20724;-43
2022/01/02 02:12:17;;;;;;;6.23;5.63;;;5.90;99.90;;;;;;5140433;27;20413;-41
2022/01/02 02:14:42;;;;;;;6.77;5.97;;;6.00;99.90;;;;;;5140737;27;20421;-42
2022/01/02 02:17:08;;;;;;;6.27;5.53;;;6.00;99.90;;;;;;5140234;27;20478;-42
2022/01/02 02:19:34;;;;;;;6.87;5.90;;;6.00;99.90;;;;;;5140437;27;20199;-42
2022/01/02 02:21:59;;;;;;;6.80;5.17;;;6.00;99.90;;;;;;5140542;27;20267;-42
2022/01/02 02:24:25;;;;;;;6.87;6.20;;;6.10;99.90;;;;;;5140441;27;20180;-43
2022/01/02 02:26:52;;;;;;;5.70;5.10;;;6.10;99.90;;;;;;5139557;27;20210;-42
2022/01/02 02:29:17;;;;;;;6.77;5.00;;;6.10;99.90;;;;;;5140090;27;20210;-42
2022/01/02 02:31:43;;;;;;;5.97;4.87;;;6.10;99.90;;;;;;5139986;27;20812;-40
2022/01/02 02:34:09;;;;;;;5.53;4.93;;;6.10;99.90;;;;;;5140369;27;20178;-42
2022/01/02 02:36:34;;;;;;;6.87;5.40;;;6.10;99.90;;;;;;5140227;27;20282;-43
2022/01/02 02:39:00;;;;;;;5.90;5.30;;;6.10;99.90;;;;;;5140289;27;20214;-41
2022/01/02 02:41:31;;;;;;;4.80;4.37;;;6.10;99.90;;;;;;5140029;27;20179;-41
2022/01/02 02:44:07;;;;;;;6.23;5.60;;;6.00;99.90;;;;;;5139923;27;20293;-42
2022/01/02 02:49:17;;;;;;;5.23;4.53;;;5.90;99.90;;;;;;5139473;27;20447;-41
2022/01/02 02:51:51;;;;;;;5.90;4.40;;;5.80;99.90;;;;;;5140024;27;20842;-41
2022/01/02 02:54:21;;;;;;;4.97;4.20;;;5.70;99.90;;;;;;5119159;28;20180;-43
2022/01/02 02:56:57;;;;;;;5.50;4.93;;;5.60;99.90;;;;;;5119337;28;20815;-43
2022/01/02 02:59:28;;;;;;;6.17;5.53;;;5.60;99.90;;;;;;5118254;28;20927;-43
2022/01/02 03:01:57;;;;;;;8.23;5.63;;;5.60;99.90;;;;;;5117944;28;20448;-41
2022/01/02 03:04:23;;;;;;;5.73;5.00;;;5.60;99.90;;;;;;5117760;28;20463;-42
2022/01/02 03:06:49;;;;;;;5.37;4.77;;;5.70;99.90;;;;;;5117640;28;20461;-42
2022/01/02 03:09:18;;;;;;;6.17;5.00;;;5.70;99.90;;;;;;5117779;28;20425;-42
2022/01/02 03:11:46;;;;;;;4.93;4.50;;;5.80;99.90;;;;;;5118008;28;20443;-42
2022/01/02 03:14:13;;;;;;;5.10;4.40;;;5.80;99.90;;;;;;5117827;28;20436;-42
2022/01/02 03:16:39;;;;;;;5.93;4.07;;;5.90;99.90;;;;;;5125021;27;20527;-43
2022/01/02 03:19:06;;;;;;;5.90;4.80;;;5.90;99.90;;;;;;5139574;27;20440;-41
2022/01/02 03:21:34;;;;;;;5.03;4.53;;;5.90;99.90;;;;;;5139367;27;20861;-41
2022/01/02 03:24:00;;;;;;;5.03;4.53;;;6.00;99.90;;;;;;5138907;27;20842;-41
2022/01/02 03:26:25;;;;;;;5.87;5.00;;;6.00;99.90;;;;;;5138698;27;20532;-40
2022/01/02 03:28:51;;;;;;;6.00;5.07;;;6.00;99.90;;;;;;5138086;27;20182;-43
2022/01/02 03:31:17;;;;;;;4.63;4.20;;;6.10;99.90;;;;;;5138316;27;20245;-41
2022/01/02 03:33:44;;;;;;;6.40;5.23;;;6.10;99.90;;;;;;5138880;27;20194;-40
2022/01/02 03:36:09;;;;;;;5.30;4.70;;;6.10;99.90;;;;;;5138134;27;20194;-42
2022/01/02 03:38:35;;;;;;;6.87;5.13;;;6.10;99.90;;;;;;5136446;27;20429;-39
2022/01/02 03:41:01;;;;;;;6.80;5.20;;;6.10;99.90;;;;;;5136859;27;20195;-42
2022/01/02 03:43:27;;;;;;;6.33;5.60;;;6.20;99.90;;;;;;5137964;27;20175;-42
2022/01/02 03:45:54;;;;;;;5.90;4.87;;;6.20;99.90;;;;;;5137719;27;20219;-42
2022/01/02 03:48:20;;;;;;;6.13;5.00;;;6.10;99.90;;;;;;5137886;27;20432;-43
2022/01/02 03:50:45;;;;;;;5.80;4.73;;;6.00;99.90;;;;;;5138029;27;20462;-42
2022/01/02 03:53:11;;;;;;;5.60;5.10;;;5.80;99.70;;;;;;5138616;27;20540;-43
2022/01/02 03:55:38;;;;;;;6.83;5.37;;;5.70;99.90;;;;;;5138696;27;20633;-41
2022/01/02 03:58:03;;;;;;;5.30;4.80;;;5.60;99.90;;;;;;5138823;27;20189;-43
2022/01/02 04:00:29;;;;;;;5.93;4.93;;;5.50;99.90;;;;;;5138624;27;20512;-43
2022/01/02 04:02:55;;;;;;;7.03;5.47;;;5.50;99.90;;;;;;5138860;27;20183;-42
2022/01/02 04:05:20;;;;;;;5.97;5.37;;;5.50;99.90;;;;;;5138406;27;20210;-40
2022/01/02 04:07:46;;;;;;;5.80;4.60;;;5.40;99.90;;;;;;5138988;28;20257;-42
2022/01/02 04:10:16;;;;;;;4.77;4.13;;;5.40;99.90;;;;;;5139094;28;20192;-42
2022/01/02 04:12:45;;;;;;;6.33;4.73;;;5.40;99.90;;;;;;5138748;27;20404;-43
2022/01/02 04:15:12;;;;;;;5.70;4.60;;;5.40;99.90;;;;;;5120000;28;20440;-41
2022/01/02 04:17:41;;;;;;;5.40;4.60;;;5.30;99.90;;;;;;5138787;27;20417;-42
2022/01/02 04:20:10;;;;;;;5.13;4.63;;;5.30;99.90;;;;;;5138762;27;20420;-40
2022/01/02 04:22:36;;;;;;;5.63;5.10;;;5.20;99.90;;;;;;5138626;27;20506;-41
2022/01/02 04:25:02;;;;;;;5.13;4.33;;;5.10;99.90;;;;;;5138784;28;20507;-42
2022/01/02 04:27:28;;;;;;;6.17;4.70;;;5.10;99.90;;;;;;5138458;28;20508;-43
2022/01/02 04:29:54;;;;;;;6.03;4.80;;;5.10;99.90;;;;;;5138529;27;20891;-43
2022/01/02 04:32:20;;;;;;;5.47;4.97;;;5.10;99.90;;;;;;5138521;27;20408;-43
2022/01/02 04:34:46;;;;;;;5.93;4.83;;;5.10;99.90;;;;;;5138599;27;20179;-43
2022/01/02 04:37:12;;;;;;;6.13;4.77;;;5.00;99.90;;;;;;5138771;27;20506;-41
2022/01/02 04:39:39;;;;;;;5.13;4.57;;;5.00;99.90;;;;;;5138611;27;20425;-43
2022/01/02 04:42:05;;;;;;;5.87;4.57;;;5.00;99.90;;;;;;5120730;28;20829;-42
2022/01/02 04:44:30;;;;;;;5.97;4.90;;;4.90;99.90;;;;;;5138739;28;20424;-40
2022/01/02 04:46:56;;;;;;;5.10;4.60;;;4.90;99.90;;;;;;5138449;28;20498;-42
2022/01/02 04:49:22;;;;;;;6.30;4.90;;;4.90;99.90;;;;;;5140321;27;20246;-43
2022/01/02 04:51:47;;;;;;;7.03;5.53;;;4.90;99.90;;;;;;5141942;27;20549;-41
2022/01/02 04:54:14;;;;;;;5.83;4.90;;;4.90;99.90;;;;;;5142371;27;20171;-42
2022/01/02 04:56:43;;;;;;;5.30;4.80;;;4.90;99.90;;;;;;5142017;27;20216;-42
2022/01/02 04:59:08;;;;;;;6.90;5.50;;;4.90;99.90;;;;;;5142698;27;20802;-40
2022/01/02 05:01:34;;;;;;;6.07;4.90;;;4.90;99.90;;;;;;5141962;27;20416;-42
2022/01/02 05:04:00;;;;;;;5.43;4.87;;;5.00;99.90;;;;;;5142109;27;20171;-45
2022/01/02 05:06:25;;;;;;;6.03;4.97;;;5.00;99.90;;;;;;5142080;27;20267;-46
2022/01/02 05:08:51;;;;;;;6.63;5.30;;;5.00;99.90;;;;;;5141957;27;20214;-45
2022/01/02 05:11:17;;;;;;;6.13;4.57;;;5.00;99.90;;;;;;5142298;27;20168;-45
2022/01/02 05:13:43;;;;;;;5.37;4.87;;;5.10;99.90;;;;;;5141727;27;20172;-45
2022/01/02 05:16:09;;;;;;;5.70;5.10;;;5.10;99.90;;;;;;5141744;27;20686;-45
2022/01/02 05:18:34;;;;;;;5.17;4.67;;;5.10;99.90;;;;;;5141939;27;20426;-45
2022/01/02 05:21:00;;;;;;;5.90;4.60;;;5.10;99.90;;;;;;5141833;27;20187;-45
2022/01/02 05:23:26;;;;;;;5.40;4.80;;;5.10;99.90;;;;;;5141421;27;20181;-46
2022/01/02 05:25:51;;;;;;;6.40;5.00;;;5.10;99.90;;;;;;5141590;27;20205;-45
2022/01/02 05:28:17;;;;;;;5.93;5.10;;;5.10;99.90;;;;;;5141356;27;20192;-45
2022/01/02 05:30:46;;;;;;;5.67;5.07;;;5.00;99.90;;;;;;5141058;27;20625;-45
2022/01/02 05:33:11;;;;;;;7.00;5.40;;;5.00;99.90;;;;;;5141481;27;20178;-45
2022/01/02 05:35:37;;;;;;;5.97;5.07;;;5.00;99.90;;;;;;5141208;27;20417;-45
2022/01/02 05:38:04;;;;;;;5.50;4.70;;;5.00;99.90;;;;;;5141369;27;20175;-45
2022/01/02 05:40:31;;;;;;;5.90;4.67;;;4.90;99.90;;;;;;5141585;27;20572;-45
2022/01/02 05:43:00;;;;;;;4.83;4.20;;;5.00;99.90;;;;;;5140989;27;20420;-45
2022/01/02 05:45:26;;;;;;;5.00;4.20;;;5.00;99.90;;;;;;5122973;27;20496;-45
2022/01/02 05:47:54;;;;;;;6.20;4.90;;;5.00;99.90;;;;;;5141348;27;20404;-45
2022/01/02 05:50:20;;;;;;;4.87;4.37;;;5.00;99.90;;;;;;5140988;27;20831;-45
2022/01/02 05:52:46;;;;;;;7.13;4.67;;;5.00;99.90;;;;;;5140800;27;20752;-45
2022/01/02 05:55:11;;;;;;;4.00;3.70;;;5.10;99.90;;;;;;5140634;27;20420;-45
2022/01/02 05:57:37;;;;;;;5.10;4.30;;;5.10;99.90;;;;;;5141570;27;20183;-45
2022/01/02 06:00:04;;;;;;;4.13;3.70;;;5.20;99.90;;;;;;5140607;27;20248;-45
2022/01/02 06:02:48;;;;;;;4.03;3.60;;;5.30;99.90;;;;;;5140334;27;20214;-45
2022/01/02 06:05:13;;;;;;;4.57;3.60;;;5.50;99.90;;;;;;5124422;27;20488;-45
2022/01/02 06:07:39;;;;;;;4.03;3.10;;;5.70;99.90;;;;;;5139966;27;20702;-45
2022/01/02 06:10:07;;;;;;;3.50;3.20;;;5.80;99.90;;;;;;5139763;27;20275;-45
2022/01/02 06:12:33;;;;;;;4.13;3.73;;;5.90;99.90;;;;;;5140096;27;20171;-45
2022/01/02 06:14:58;;;;;;;3.93;3.27;;;6.10;99.90;;;;;;5121466;27;20529;-45
2022/01/02 06:17:24;;;;;;;4.90;3.20;;;6.10;99.90;;;;;;5141147;27;20209;-45
2022/01/02 06:19:50;;;;;;;3.40;3.00;;;6.20;99.90;;;;;;5140471;27;20175;-45
2022/01/02 06:22:17;;;;;;;3.70;3.00;;;6.30;99.90;;;;;;5122569;27;20178;-45
2022/01/02 06:24:43;;;;;;;3.87;3.40;;;6.30;99.90;;;;;;5140537;27;20220;-45
2022/01/02 06:27:09;;;;;;;4.30;3.60;;;6.40;99.90;;;;;;5140443;27;20981;-45
2022/01/02 06:29:35;;;;;;;4.23;3.07;;;6.40;99.90;;;;;;5140108;27;20189;-45
2022/01/02 06:32:01;;;;;;;4.37;3.10;;;6.40;99.90;;;;;;5139843;27;20717;-46
2022/01/02 06:34:26;;;;;;;3.87;3.47;;;6.50;99.90;;;;;;5140171;27;20179;-45
2022/01/02 06:36:52;;;;;;;5.43;3.40;;;6.50;99.90;;;;;;5140333;27;20190;-45
2022/01/02 06:39:17;;;;;;;4.73;3.30;;;6.50;99.90;;;;;;5139772;27;20625;-45
2022/01/02 06:41:43;;;;;;;4.53;3.73;;;6.50;99.90;;;;;;5139509;27;20179;-45
2022/01/02 06:44:08;;;;;;;4.60;3.63;;;6.40;99.90;;;;;;5139027;27;20203;-45
2022/01/02 06:46:34;;;;;;;4.20;3.80;;;6.40;99.90;;;;;;5137851;27;20656;-45
2022/01/02 06:49:00;;;;;;;4.17;3.47;;;6.50;99.90;;;;;;5137354;27;20610;-43
2022/01/02 06:51:25;;;;;;;4.30;3.90;;;6.50;99.90;;;;;;5137726;27;20175;-43
2022/01/02 06:53:51;;;;;;;4.00;3.60;;;6.60;99.90;;;;;;5138451;27;20190;-44
2022/01/02 06:56:16;;;;;;;5.67;3.77;;;6.60;99.90;;;;;;5138424;27;20202;-44
2022/01/02 06:58:42;;;;;;;4.50;3.40;;;6.70;99.90;;;;;;5138849;27;20268;-44
2022/01/02 07:01:08;;;;;;;4.70;3.63;;;6.70;99.90;;;;;;5139207;27;20186;-44
2022/01/02 07:03:33;;;;;;;5.03;4.50;;;6.60;99.90;;;;;;5121278;27;20232;-44
2022/01/02 07:06:00;;;;;;;4.10;3.60;;;6.60;99.90;;;;;;5139638;27;20240;-44
2022/01/02 07:08:28;;;;;;;5.23;4.27;;;6.60;99.90;;;;;;5139170;27;20247;-44
2022/01/02 07:10:54;;;;;;;4.90;4.10;;;6.60;99.90;;;;;;5139086;27;20412;-44
2022/01/02 07:13:20;;;;;;;3.73;3.30;;;6.60;99.90;;;;;;5139545;27;20410;-44
2022/01/02 07:15:45;;;;;;;4.20;3.53;;;6.70;99.90;;;;;;5139565;27;20441;-44
2022/01/02 07:18:13;;;;;;;3.90;3.50;;;6.70;99.90;;;;;;5121439;27;20219;-44
2022/01/02 07:20:39;;;;;;;4.70;3.27;;;6.80;99.90;;;;;;5139532;27;20262;-44
2022/01/02 07:23:04;;;;;;;7.17;3.90;;;6.90;99.90;;;;;;5139182;27;20929;-44
2022/01/02 07:25:30;;;;;;;3.40;3.10;;;6.90;99.90;;;;;;5139052;27;20219;-44
2022/01/02 07:27:55;;;;;;;4.20;3.37;;;7.00;99.80;;;;;;5138964;27;20180;-44
2022/01/02 07:30:21;;;;;;;3.23;2.93;;;7.10;99.50;;;;;;5139007;27;20242;-44
2022/01/02 07:32:50;;;;;;;5.70;3.77;;;7.10;99.30;;;;;;5139223;27;20203;-44
2022/01/02 07:35:15;;;;;;;5.57;3.50;;;7.20;99.00;;;;;;5139047;27;20234;-44
2022/01/02 07:37:41;;;;;;;5.00;4.17;;;7.20;98.80;;;;;;5138874;27;20835;-44
2022/01/02 07:40:07;;;;;;;4.07;3.47;;;7.30;98.50;;;;;;5139199;27;20181;-44
2022/01/02 07:42:33;;;;;;;4.70;3.77;;;7.30;98.30;;;;;;5139559;27;20563;-44
2022/01/02 07:44:59;;;;;;;3.73;3.37;;;7.40;98.10;;;;;;5139027;27;20421;-45
2022/01/02 07:47:25;;;;;;;4.37;3.43;;;7.40;98.00;;;;;;5138602;27;20443;-44
2022/01/02 07:49:50;;;;;;;3.37;3.00;;;7.50;97.80;;;;;;5138602;27;20199;-44
2022/01/02 07:52:16;;;;;;;3.47;3.03;;;7.60;97.30;;;;;;5139036;27;20473;-45
2022/01/02 07:54:42;;;;;;;3.40;3.10;;;7.70;97.00;;;;;;5138910;27;20179;-45
2022/01/02 07:57:07;;;;;;;4.50;2.97;;;7.80;96.80;;;;;;5139167;27;20243;-45
2022/01/02 07:59:33;;;;;;;4.20;3.13;;;7.90;96.40;;;;;;5138574;27;20197;-45
2022/01/02 08:01:59;;;;;;;3.37;3.03;;;8.00;96.20;;;;;;5138926;27;20186;-45
2022/01/02 08:04:24;;;;;;;5.13;3.00;;;8.10;96.20;;;;;;5138674;27;20733;-45
2022/01/02 08:06:53;;;;;;;3.50;3.03;;;8.20;96.20;;;;;;5138544;27;20203;-45
2022/01/02 08:09:19;;;;;;;3.30;2.70;;;8.30;96.20;;;;;;5138429;27;20180;-45
2022/01/02 08:11:44;;;;;;;3.80;3.00;;;8.40;96.10;;;;;;5138782;28;20710;-45
2022/01/02 08:14:11;;;;;;;3.33;2.53;;;8.60;96.30;;;;;;5132161;27;20191;-45
2022/01/02 08:16:37;;;;;;;3.50;2.43;;;8.70;95.30;;;;;;5119559;28;20210;-45
2022/01/02 08:19:05;;;;;;;5.20;2.90;;;8.80;95.00;;;;;;5117908;28;20467;-45
2022/01/02 08:21:31;;;;;;;3.27;2.60;;;9.00;94.50;;;;;;5117918;28;20484;-45
2022/01/02 08:23:57;;;;;;;2.63;2.43;;;9.20;94.10;;;;;;5118665;28;20432;-45
2022/01/02 08:26:23;;;;;;;3.63;3.10;;;9.50;93.80;;;;;;5121570;28;20484;-46
2022/01/02 08:28:50;;;;;;;3.43;3.13;;;9.80;93.70;;;;;;5121928;28;20244;-45
2022/01/02 08:31:16;;;;;;;4.50;3.20;;;10.10;92.60;;;;;;5103758;28;20461;-46
2022/01/02 08:33:42;;;;;;;4.63;3.67;;;10.30;92.60;;;;;;5120429;28;20432;-45
2022/01/02 08:36:08;;;;;;;4.10;3.47;;;10.40;92.40;;;;;;5120777;28;20176;-46
2022/01/02 08:38:34;;;;;;;4.23;3.70;;;10.40;92.40;;;;;;5120335;28;20190;-46
2022/01/02 08:40:59;;;;;;;4.80;4.30;;;10.40;92.80;;;;;;5120205;28;20692;-45
2022/01/02 08:43:25;;;;;;;4.50;3.83;;;10.30;93.30;;;;;;5101590;28;20546;-47
2022/01/02 08:45:51;;;;;;;6.10;4.20;;;10.40;93.80;;;;;;5120024;28;20207;-46
2022/01/02 08:48:16;;;;;;;4.40;3.60;;;10.50;94.20;;;;;;5121497;28;20198;-45
2022/01/02 08:50:42;;;;;;;4.77;3.63;;;10.80;94.50;;;;;;5121313;28;20448;-45
2022/01/02 08:53:08;;;;;;;3.83;3.47;;;11.00;93.90;;;;;;5121003;28;20175;-45
2022/01/02 08:55:35;;;;;;;4.50;4.10;;;11.20;93.30;;;;;;5121392;28;20179;-45
2022/01/02 08:58:01;;;;;;;3.80;3.40;;;11.30;92.90;;;;;;5121593;28;20215;-45
2022/01/02 09:00:32;;;;;;;4.87;3.90;;;11.40;92.90;;;;;;5121490;28;20440;-45
2022/01/02 09:02:59;;;;;;;4.80;4.00;;;11.50;92.90;;;;;;5121427;28;20470;-45
2022/01/02 09:05:26;;;;;;;5.43;4.17;;;11.70;93.00;;;;;;5121116;28;20465;-45
2022/01/02 09:07:52;;;;;;;6.87;5.17;;;12.00;93.10;;;;;;5121086;28;20175;-46
2022/01/02 09:10:18;;;;;;;5.30;4.57;;;12.50;92.70;;;;;;5101169;28;20444;-45
2022/01/02 09:12:45;;;;;;;4.83;4.33;;;13.10;92.40;;;;;;5083729;28;20437;-46
2022/01/02 09:15:11;;;;;;;5.50;4.60;;;13.80;91.70;;;;;;5118844;28;20456;-45
2022/01/02 09:17:39;;;;;;;4.87;4.43;;;14.90;90.40;;;;;;5100595;28;20419;-45
2022/01/02 09:20:09;;;;;;;5.10;4.60;;;16.10;87.30;;;;;;5119459;28;20440;-45
2022/01/02 09:22:37;;;;;;;4.90;4.40;;;17.30;83.50;;;;;;5119153;28;20469;-47
2022/01/02 09:25:04;;;;;;;3.43;3.13;;;18.00;77.80;;;;;;5119958;28;20414;-45
2022/01/02 09:27:30;;;;;;;3.33;3.03;;;18.40;71.30;;;;;;5120473;28;20428;-45
2022/01/02 09:29:55;;;;;;;3.60;3.30;;;18.30;67.00;;;;;;5120798;28;20477;-45
2022/01/02 09:32:21;;;;;;;3.33;3.03;;;18.00;65.50;;;;;;5121004;28;20511;-46
2022/01/02 09:34:47;;;;;;;3.20;2.90;;;17.50;65.50;;;;;;5120331;28;20181;-46
2022/01/02 09:37:15;;;;;;;4.40;3.30;;;16.90;66.90;;;;;;5120594;28;20181;-45
2022/01/02 09:39:41;;;;;;;4.90;4.40;;;16.50;67.00;;;;;;5120246;28;20188;-45
2022/01/02 09:42:09;;;;;;;3.53;3.23;;;16.00;67.10;;;;;;5119903;28;20512;-45
2022/01/02 09:44:35;;;;;;;3.53;3.20;;;15.50;68.00;;;;;;5120242;28;20444;-45
2022/01/02 09:47:01;;;;;;;4.03;3.70;;;15.00;69.70;;;;;;5102137;28;20473;-45
2022/01/02 09:49:27;;;;;;;3.77;3.43;;;14.60;71.00;;;;;;5102193;28;20431;-45
2022/01/02 09:51:52;;;;;;;4.17;3.77;;;14.10;70.90;;;;;;5120083;28;20180;-45
2022/01/02 09:54:18;;;;;;;4.40;3.60;;;13.90;71.40;;;;;;5119842;28;20169;-45
2022/01/02 09:56:43;;;;;;;4.00;3.60;;;13.70;72.50;;;;;;5120017;28;20486;-45
2022/01/02 09:59:09;;;;;;;3.40;2.90;;;13.60;73.00;;;;;;5118601;28;20194;-45
2022/01/02 10:01:36;;;;;;;3.70;3.40;;;13.60;72.80;;;;;;5118967;28;20179;-46
2022/01/02 10:04:02;;;;;;;3.30;3.00;;;13.60;72.80;;;;;;5119072;28;20169;-46
2022/01/02 10:06:39;;;;;;;2.80;2.50;;;13.80;73.10;;;;;;5101138;28;20461;-46
2022/01/02 10:09:05;;;;;;;3.20;2.70;;;14.00;73.00;;;;;;5117493;28;20519;-44
2022/01/02 10:11:32;;;;;;;4.10;2.60;;;14.10;71.90;;;;;;5117400;28;20507;-46
2022/01/02 10:14:04;;;;;;;2.40;2.20;;;14.20;71.30;;;;;;5117752;28;20422;-46
2022/01/02 10:16:40;;;;;;;3.50;3.20;;;14.20;71.10;;;;;;5118001;28;20415;-46
2022/01/02 10:19:28;;;;;;;3.70;3.00;;;14.20;71.30;;;;;;5117998;28;20415;-46
2022/01/02 10:22:05;;;;;;;2.80;2.60;;;14.20;72.10;;;;;;5117528;28;20420;-46
2022/01/02 10:24:33;;;;;;;3.97;3.57;;;14.10;71.50;;;;;;5118352;28;20526;-46
2022/01/02 10:27:18;;;;;;;4.27;3.70;;;13.80;71.10;;;;;;5119587;28;20563;-46
2022/01/02 10:29:54;;;;;;;3.87;3.43;;;13.60;71.40;;;;;;5118352;28;20423;-45
2022/01/02 10:32:37;;;;;;;2.73;2.47;;;13.40;70.00;;;;;;5118829;28;20416;-44
2022/01/02 10:35:29;;;;;;;3.70;2.93;;;13.30;70.00;;;;;;5118683;28;20421;-45
2022/01/02 10:37:57;;;;;;;3.60;3.03;;;13.20;69.70;;;;;;5117242;28;20433;-45
2022/01/02 10:40:38;;;;;;;3.43;2.90;;;13.20;70.30;;;;;;5119185;28;20428;-44
2022/01/02 10:43:21;;;;;;;4.10;2.93;;;13.20;70.70;;;;;;5119197;28;20523;-45
2022/01/02 10:45:50;;;;;;;3.23;2.87;;;13.30;69.10;;;;;;5100560;28;20897;-46
2022/01/02 10:48:38;;;;;;;3.03;2.73;;;13.30;69.30;;;;;;5100597;28;20441;-45
2022/01/02 10:51:23;;;;;;;2.57;2.00;;;13.40;72.10;;;;;;5118520;28;20886;-45
2022/01/02 10:53:59;;;;;;;4.23;2.43;;;13.70;82.40;;;;;;5118222;28;20434;-45
2022/01/02 10:56:27;;;;;;;4.17;3.77;;;14.30;79.40;;;;;;5099376;28;20465;-44
2022/01/02 10:58:53;;;;;;;3.20;2.57;;;14.70;74.00;;;;;;5116809;28;20486;-45
2022/01/02 11:01:20;;;;;;;3.37;1.90;;;15.00;68.40;;;;;;5116865;28;20759;-45
2022/01/02 11:03:47;;;;;;;2.70;2.30;;;15.00;68.40;;;;;;5098888;28;20179;-45
2022/01/02 11:06:22;;;;;;;2.50;2.10;;;15.00;71.80;;;;;;5117186;28;20733;-45
2022/01/02 11:08:50;;;;;;;2.60;1.80;;;15.00;71.00;;;;;;5098477;28;20420;-45
2022/01/02 11:11:18;;;;;;;2.23;1.90;;;15.10;69.60;;;;;;5099500;28;20822;-45
2022/01/02 11:13:44;;;;;;;2.60;2.07;;;15.20;67.10;;;;;;5117412;28;20430;-45
2022/01/02 11:16:10;;;;;;;1.90;1.70;;;15.00;65.10;;;;;;5099591;28;20702;-45
2022/01/02 11:18:36;;;;;;;2.77;2.17;;;14.80;65.20;;;;;;5099457;28;20271;-45
2022/01/02 11:21:03;;;;;;;4.50;2.37;;;14.50;66.20;;;;;;5117382;28;20186;-37
2022/01/02 11:23:55;;;;;;;4.17;2.73;;;14.60;68.70;;;;;;5099936;28;20340;-45
2022/01/02 11:26:29;;;;;;;2.97;2.23;;;14.60;65.80;;;;;;5100824;28;20475;-38
2022/01/02 11:28:59;;;;;;;3.10;2.10;;;14.50;65.10;;;;;;5100090;28;20436;-38
2022/01/02 11:31:30;;;;;;;3.00;2.40;;;14.30;64.50;;;;;;5101300;28;20906;-35
2022/01/02 11:33:56;;;;;;;3.77;2.80;;;14.10;65.10;;;;;;5118453;28;20414;-36
2022/01/02 11:36:24;;;;;;;2.83;2.63;;;14.00;65.70;;;;;;5100282;28;20440;-37
2022/01/02 11:39:10;;;;;;;3.20;2.47;;;13.70;64.70;;;;;;5100195;28;20434;-37
2022/01/02 11:41:38;;;;;;;6.17;2.70;;;13.60;65.40;;;;;;5118464;28;20693;-38
2022/01/02 11:44:05;;;;;;;2.97;2.50;;;13.40;66.10;;;;;;5117638;28;20711;-38
2022/01/02 11:46:37;;;;;;;3.33;2.37;;;13.30;67.10;;;;;;5117185;28;20463;-38
2022/01/02 11:49:08;;;;;;;2.40;2.13;;;13.00;67.20;;;;;;5118078;28;20455;-36
2022/01/02 11:51:51;;;;;;;3.97;3.07;;;12.90;67.70;;;;;;5118223;28;20421;-39
2022/01/02 11:54:43;;;;;;;3.73;2.43;;;12.80;68.40;;;;;;5116115;28;20445;-37
2022/01/02 11:57:11;;;;;;;3.10;2.80;;;12.70;68.90;;;;;;5117951;28;20422;-36
2022/01/02 11:59:43;;;;;;;3.60;2.57;;;12.60;69.00;;;;;;5116982;28;20868;-37
2022/01/02 12:02:09;;;;;;;2.70;2.40;;;12.60;68.90;;;;;;5119466;28;20417;-37
2022/01/02 12:05:02;;;;;;;2.67;2.03;;;12.60;68.90;;;;;;5120378;28;20414;-36
2022/01/02 12:07:37;;;;;;;3.93;2.23;;;12.70;68.50;;;;;;5119169;28;20611;-38
2022/01/02 12:10:22;;;;;;;2.07;1.60;;;12.80;68.10;;;;;;5117881;28;20513;-37
2022/01/02 12:13:00;;;;;;;2.03;1.80;;;13.30;64.90;;;;;;5117527;28;20404;-38
2022/01/02 12:15:34;;;;;;;2.13;1.43;;;14.20;62.50;;;;;;5117966;28;20419;-39
2022/01/02 12:18:14;;;;;;;2.40;2.20;;;14.70;59.70;;;;;;5118168;28;20475;-38
2022/01/02 12:21:00;;;;;;;2.10;1.80;;;14.80;59.20;;;;;;5101257;28;20497;-36
2022/01/02 12:23:40;;;;;;;2.37;1.77;;;15.00;58.70;;;;;;5116438;28;20473;-36
2022/01/02 12:26:11;;;;;;;2.33;1.70;;;15.20;58.30;;;;;;5115001;28;20467;-37
2022/01/02 12:28:36;;;;;;;2.80;1.67;;;15.30;57.60;;;;;;5116333;28;20420;-37
2022/01/02 12:31:03;;;;;;;2.03;1.83;;;15.40;57.60;;;;;;5116398;28;20563;-38
2022/01/02 12:33:32;;;;;;;2.97;1.80;;;16.00;57.30;;;;;;5081278;28;20183;-38
2022/01/02 12:36:07;;;;;;;3.63;1.90;;;16.80;56.30;;;;;;5115487;28;20419;-37
2022/01/02 12:38:48;;;;;;;4.10;1.93;;;17.60;54.90;;;;;;5114977;28;20448;-38
2022/01/02 12:41:15;;;;;;;2.63;1.93;;;18.40;53.80;;;;;;5115354;28;20971;-37
2022/01/02 12:43:54;;;;;;;3.60;1.67;;;18.80;52.80;;;;;;5117237;28;20486;-38
2022/01/02 12:46:33;;;;;;;3.97;2.00;;;19.30;52.10;;;;;;5099010;28;20739;-37
2022/01/02 12:48:59;;;;;;;2.43;2.00;;;19.40;51.20;;;;;;5116914;28;20508;-40
2022/01/02 12:51:29;;;;;;;3.47;1.70;;;19.50;51.30;;;;;;5116353;28;20483;-39
2022/01/02 12:54:27;;;;;;;3.27;2.10;;;19.20;49.80;;;;;;5115951;28;20468;-39
2022/01/02 12:56:55;;;;;;;2.70;1.97;;;19.20;49.60;;;;;;5097621;28;20450;-38
2022/01/02 12:59:31;;;;;;;5.80;2.03;;;19.30;49.90;;;;;;5116723;28;20410;-38
2022/01/02 13:02:05;;;;;;;2.30;1.40;;;19.10;49.20;;;;;;5116913;28;20746;-37
2022/01/02 13:04:38;;;;;;;2.07;1.57;;;19.20;49.90;;;;;;5115930;28;20568;-38